createdAt,value
2018-06-11T00:03:20.550Z,99.90
2018-06-11T00:08:04.892Z,99.90
2018-06-11T00:12:49.402Z,99.90
2018-06-11T00:17:33.884Z,99.90
2018-06-11T00:22:18.484Z,99.90
2018-06-11T00:27:03.189Z,99.90
2018-06-11T00:31:47.728Z,99.90
2018-06-11T00:36:32.170Z,99.90
2018-06-11T00:41:17.592Z,99.90
2018-06-11T00:46:02.145Z,99.90
2018-06-11T00:50:46.637Z,99.90
2018-06-11T00:55:43.598Z,99.90
2018-06-11T01:00:28.008Z,99.90
2018-06-11T01:05:12.507Z,99.90
2018-06-11T01:09:57.029Z,99.90
2018-06-11T01:14:41.504Z,99.90
2018-06-11T01:19:25.954Z,99.90
2018-06-11T01:24:10.519Z,99.90
2018-06-11T01:28:55.067Z,99.90
2018-06-11T01:33:39.454Z,99.90
2018-06-11T01:38:23.919Z,99.90
2018-06-11T01:43:08.283Z,99.90
2018-06-11T01:47:52.791Z,99.90
2018-06-11T01:52:37.365Z,99.90
2018-06-11T01:57:22.017Z,99.90
2018-06-11T02:02:06.590Z,99.90
2018-06-11T02:06:52.441Z,99.90
2018-06-11T02:11:36.923Z,99.90
2018-06-11T02:16:21.447Z,99.90
2018-06-11T02:21:05.821Z,99.90
2018-06-11T02:25:50.180Z,99.90
2018-06-11T02:30:34.608Z,99.90
2018-06-11T02:35:19.103Z,99.90
2018-06-11T02:40:03.576Z,99.90
2018-06-11T02:44:48.279Z,99.90
2018-06-11T02:49:32.692Z,99.90
2018-06-11T02:54:17.245Z,99.90
2018-06-11T02:59:01.619Z,99.90
2018-06-11T03:03:46.143Z,99.90
2018-06-11T03:08:30.784Z,99.90
2018-06-11T03:13:15.360Z,99.90
2018-06-11T03:17:59.775Z,99.90
2018-06-11T03:22:44.292Z,99.90
2018-06-11T03:27:28.999Z,99.90
2018-06-11T03:32:13.551Z,99.90
2018-06-11T03:36:57.916Z,99.90
2018-06-11T03:41:42.322Z,99.90
2018-06-11T03:46:26.915Z,99.90
2018-06-11T03:51:11.429Z,99.90
2018-06-11T03:55:55.844Z,99.90
2018-06-11T04:00:41.376Z,99.90
2018-06-11T04:05:26.217Z,99.90
2018-06-11T04:10:10.580Z,99.90
2018-06-11T04:14:55.013Z,99.90
2018-06-11T04:19:39.440Z,99.90
2018-06-11T04:24:23.922Z,99.90
2018-06-11T04:29:08.899Z,99.90
2018-06-11T04:33:53.342Z,99.90
2018-06-11T04:38:37.868Z,99.90
2018-06-11T04:43:22.295Z,99.90
2018-06-11T04:48:06.653Z,99.90
2018-06-11T04:52:51.211Z,99.90
2018-06-11T04:57:35.800Z,99.90
2018-06-11T05:02:20.485Z,99.90
2018-06-11T05:07:04.957Z,99.90
2018-06-11T05:11:49.607Z,99.90
2018-06-11T05:16:34.180Z,99.90
2018-06-11T05:21:18.655Z,99.90
2018-06-11T05:26:03.210Z,99.90
2018-06-11T05:30:47.850Z,99.90
2018-06-11T05:35:32.570Z,99.90
2018-06-11T05:40:17.134Z,99.90
2018-06-11T05:45:01.598Z,99.90
2018-06-11T05:49:46.016Z,99.90
2018-06-11T05:54:31.149Z,99.90
2018-06-11T05:59:15.775Z,99.90
2018-06-11T06:04:00.543Z,99.90
2018-06-11T06:08:45.183Z,99.90
2018-06-11T06:13:29.798Z,99.90
2018-06-11T06:18:14.501Z,99.90
2018-06-11T06:22:59.280Z,99.90
2018-06-11T06:27:43.915Z,99.90
2018-06-11T06:32:28.914Z,99.90
2018-06-11T06:37:13.535Z,99.90
2018-06-11T06:41:58.034Z,99.90
2018-06-11T06:46:42.488Z,99.90
2018-06-11T06:51:27.095Z,99.90
2018-06-11T06:56:11.498Z,99.90
2018-06-11T07:00:56.010Z,99.90
2018-06-11T07:05:40.591Z,99.90
2018-06-11T07:10:25.015Z,99.90
2018-06-11T07:15:09.667Z,99.90
2018-06-11T07:19:54.268Z,99.90
2018-06-11T07:24:38.652Z,99.90
2018-06-11T07:29:23.165Z,99.90
2018-06-11T07:34:07.879Z,99.90
2018-06-11T07:38:52.509Z,99.90
2018-06-11T07:43:36.993Z,99.90
2018-06-11T07:48:21.541Z,99.90
2018-06-11T07:53:06.037Z,99.90
2018-06-11T07:57:50.434Z,99.90
2018-06-11T08:02:34.811Z,99.90
2018-06-11T08:07:19.507Z,99.90
2018-06-11T08:12:04.095Z,99.90
2018-06-11T08:16:48.523Z,99.90
2018-06-11T08:21:33.008Z,99.90
2018-06-11T08:26:17.476Z,99.90
2018-06-11T08:31:01.930Z,99.90
2018-06-11T08:35:46.458Z,99.90
2018-06-11T08:40:30.867Z,99.90
2018-06-11T08:45:15.358Z,99.90
2018-06-11T08:49:59.815Z,99.90
2018-06-11T08:54:44.225Z,99.90
2018-06-11T08:59:28.658Z,99.90
2018-06-11T09:04:13.115Z,99.90
2018-06-11T09:08:57.610Z,99.90
2018-06-11T09:13:42.058Z,99.90
2018-06-11T09:18:26.424Z,99.90
2018-06-11T09:23:10.799Z,99.90
2018-06-11T09:27:55.291Z,99.90
2018-06-11T09:32:39.763Z,99.90
2018-06-11T09:37:24.129Z,99.90
2018-06-11T09:42:08.739Z,99.90
2018-06-11T09:46:53.200Z,99.90
2018-06-11T09:51:37.741Z,99.90
2018-06-11T09:56:22.351Z,99.90
2018-06-11T10:01:06.844Z,99.90
2018-06-11T10:05:51.457Z,99.90
2018-06-11T10:10:36.726Z,99.90
2018-06-11T10:15:21.114Z,99.90
2018-06-11T10:20:05.505Z,99.90
2018-06-11T10:24:49.933Z,99.90
2018-06-11T10:29:34.406Z,99.90
2018-06-11T10:34:18.925Z,99.90
2018-06-11T10:39:03.827Z,99.90
2018-06-11T10:43:48.333Z,99.90
2018-06-11T10:48:32.876Z,99.90
2018-06-11T10:53:17.339Z,99.90
2018-06-11T10:58:02.187Z,99.90
2018-06-11T11:02:46.742Z,99.90
2018-06-11T11:07:31.159Z,99.90
2018-06-11T11:12:15.765Z,99.90
2018-06-11T11:17:00.176Z,99.90
2018-06-11T11:21:44.615Z,99.90
2018-06-11T11:26:29.120Z,99.90
2018-06-11T11:31:13.600Z,99.90
2018-06-11T11:35:58.083Z,99.90
2018-06-11T11:40:55.380Z,99.90
2018-06-11T11:45:45.255Z,99.90
2018-06-11T11:50:29.863Z,99.90
2018-06-11T11:55:14.518Z,99.20
2018-06-11T11:59:59.012Z,99.90
2018-06-11T12:04:43.451Z,99.90
2018-06-11T12:09:27.993Z,99.90
2018-06-11T12:14:12.491Z,99.90
2018-06-11T12:18:58.468Z,98.90
2018-06-11T12:23:42.959Z,98.20
2018-06-11T12:28:27.418Z,97.40
2018-06-11T12:33:11.880Z,96.80
2018-06-11T12:37:56.362Z,96.50
2018-06-11T12:42:40.852Z,96.60
2018-06-11T12:47:25.258Z,94.70
2018-06-11T12:52:09.748Z,93.70
2018-06-11T12:56:54.246Z,93.30
2018-06-11T13:01:38.629Z,91.50
2018-06-11T13:06:23.391Z,90.60
2018-06-11T13:11:07.900Z,91.50
2018-06-11T13:15:52.447Z,91.90
2018-06-11T13:20:37.022Z,94.30
2018-06-11T13:25:21.518Z,94.20
2018-06-11T13:30:06.427Z,93.20
2018-06-11T13:34:50.941Z,92.20
2018-06-11T13:39:35.403Z,92.50
2018-06-11T13:44:19.824Z,92.90
2018-06-11T13:49:04.206Z,91.30
2018-06-11T13:53:48.659Z,93.30
2018-06-11T13:58:33.339Z,94.40
2018-06-11T14:03:17.888Z,94.60
2018-06-11T14:08:02.365Z,93.10
2018-06-11T14:12:46.877Z,93.10
2018-06-11T14:17:31.322Z,91.00
2018-06-11T14:22:15.892Z,91.60
2018-06-11T14:27:00.519Z,92.40
2018-06-11T14:31:44.958Z,92.90
2018-06-11T14:36:29.538Z,91.90
2018-06-11T14:41:14.129Z,93.90
2018-06-11T14:45:58.682Z,92.20
2018-06-11T14:50:50.733Z,93.60
2018-06-11T14:55:35.156Z,92.70
2018-06-11T15:00:19.576Z,92.70
2018-06-11T15:05:04.090Z,93.00
2018-06-11T15:09:48.731Z,91.70
2018-06-11T15:14:33.162Z,91.70
2018-06-11T15:19:17.519Z,91.60
2018-06-11T15:24:01.973Z,91.70
2018-06-11T15:28:46.901Z,90.50
2018-06-11T15:33:31.376Z,90.60
2018-06-11T15:38:15.826Z,86.20
2018-06-11T15:43:00.295Z,88.70
2018-06-11T15:47:44.830Z,88.10
2018-06-11T15:52:29.309Z,90.40
2018-06-11T15:57:13.979Z,90.00
2018-06-11T16:01:58.603Z,92.50
2018-06-11T16:06:43.026Z,91.30
2018-06-11T16:11:27.340Z,91.60
2018-06-11T16:16:11.761Z,92.50
2018-06-11T16:20:56.429Z,92.80
2018-06-11T16:25:40.774Z,92.60
2018-06-11T16:30:25.231Z,92.10
2018-06-11T16:35:09.657Z,92.30
2018-06-11T16:39:54.096Z,92.00
2018-06-11T16:44:38.564Z,91.70
2018-06-11T16:49:23.110Z,91.90
2018-06-11T16:54:07.928Z,94.20
2018-06-11T16:58:52.537Z,94.60
2018-06-11T17:03:37.420Z,95.00
2018-06-11T17:08:21.974Z,94.80
2018-06-11T17:13:06.339Z,95.40
2018-06-11T17:17:50.759Z,96.10
2018-06-11T17:22:35.099Z,97.50
2018-06-11T17:27:19.576Z,98.20
2018-06-11T17:32:04.163Z,98.40
2018-06-11T17:36:48.824Z,99.00
2018-06-11T17:41:33.248Z,99.70
2018-06-11T17:46:17.735Z,99.90
2018-06-11T17:51:02.257Z,99.90
2018-06-11T17:55:47.422Z,99.90
2018-06-11T18:00:33.199Z,99.90
2018-06-11T18:05:18.039Z,99.90
2018-06-11T18:10:02.587Z,99.90
2018-06-11T18:14:47.009Z,99.90
2018-06-11T18:19:31.515Z,99.90
2018-06-11T18:24:15.954Z,99.90
2018-06-11T18:29:00.449Z,99.90
2018-06-11T18:33:44.939Z,99.90
2018-06-11T18:38:29.519Z,99.90
2018-06-11T18:43:14.092Z,99.90
2018-06-11T18:47:58.729Z,99.90
2018-06-11T18:52:43.182Z,99.90
2018-06-11T18:57:27.847Z,99.90
2018-06-11T19:02:12.530Z,99.90
2018-06-11T19:06:57.031Z,99.90
2018-06-11T19:11:41.525Z,99.90
2018-06-11T19:16:26.414Z,99.90
2018-06-11T19:21:10.929Z,99.90
2018-06-11T19:25:55.540Z,99.90
2018-06-11T19:30:40.500Z,99.90
2018-06-11T19:35:25.335Z,99.90
2018-06-11T19:40:09.840Z,99.90
2018-06-11T19:44:54.531Z,99.90
2018-06-11T19:49:39.932Z,99.90
2018-06-11T19:54:24.779Z,99.90
2018-06-11T19:59:09.712Z,99.90
2018-06-11T20:03:54.955Z,99.90
2018-06-11T20:08:41.073Z,99.90
2018-06-11T20:13:25.757Z,99.90
2018-06-11T20:18:10.410Z,99.90
2018-06-11T20:22:55.422Z,99.90
2018-06-11T20:27:40.140Z,99.90
2018-06-11T20:32:24.659Z,99.90
2018-06-11T20:37:09.547Z,99.90
2018-06-11T20:41:54.224Z,99.90
2018-06-11T20:46:39.060Z,99.90
2018-06-11T20:51:23.775Z,99.90
2018-06-11T20:56:08.798Z,99.90
2018-06-11T21:02:10.934Z,99.90
2018-06-11T21:06:55.708Z,99.90
2018-06-11T21:11:40.484Z,99.90
2018-06-11T21:16:25.271Z,99.90
2018-06-11T21:21:09.923Z,99.90
2018-06-11T21:25:54.483Z,99.90
2018-06-11T21:30:39.149Z,99.90
2018-06-11T21:35:23.784Z,99.90
2018-06-11T21:40:08.144Z,99.90
2018-06-11T21:44:52.618Z,99.90
2018-06-11T21:49:37.019Z,99.90
2018-06-11T21:54:21.455Z,99.90
2018-06-11T21:59:05.905Z,99.90
2018-06-11T22:03:50.354Z,99.90
2018-06-11T22:08:34.694Z,99.90
2018-06-11T22:13:19.098Z,99.90
2018-06-11T22:18:03.624Z,99.90
2018-06-11T22:22:48.011Z,99.90
2018-06-11T22:27:32.385Z,99.90
2018-06-11T22:32:16.757Z,99.90
2018-06-11T22:37:01.163Z,99.90
2018-06-11T22:41:45.555Z,99.90
2018-06-11T22:46:29.927Z,99.90
2018-06-11T22:51:14.223Z,99.90
2018-06-11T22:55:58.643Z,99.90
2018-06-11T23:00:43.223Z,99.90
2018-06-11T23:05:27.735Z,99.90
2018-06-11T23:10:12.105Z,99.90
2018-06-11T23:14:56.523Z,99.90
2018-06-11T23:19:41.104Z,99.90
2018-06-11T23:24:25.511Z,99.90
2018-06-11T23:29:09.968Z,99.90
2018-06-11T23:33:54.580Z,99.90
2018-06-11T23:38:38.968Z,99.90
2018-06-11T23:43:39.805Z,99.90
2018-06-11T23:48:46.323Z,99.90
2018-06-11T23:53:36.642Z,99.90
2018-06-11T23:58:21.006Z,99.90
